Seahope II — 9HA2233 — position and weather

sailwx.info

Track history (hours):
 
Tides and Currents Weather Stations Pressure Air Temp Water Temp Dewpoint Dewpoint Depression Visibility Wind Speed Wind Dir Waves Ship Positions

Seahope II

Last reported at 2016-Feb-12 12:19 UTC. Time now 2016-Feb-12 18:17 UTC.
Position N 01°13' E 103°54'.

Length 190 m; draft 9.6 m.

Type: Cargo ship. MMSI: 248185000.

Date/timePositionNaut miles runAvg speedWind from/ knotsBaromVisibWave heightAir tempDewpointWater temp
2016-Feb-12 12:19N 01°13' E 103°54'7 8.7
2016-Feb-12 11:31N 01°16' E 103°60'2 1.3
2016-Feb-12 10:09N 01°18' E 104°01'0 0.1
2016-Feb-12 09:21N 01°18' E 104°01'0 0.1
2016-Feb-12 07:33N 01°18' E 104°01'0 0.1
2016-Feb-12 06:18N 01°18' E 104°01'0 0.0
2016-Feb-12 05:33N 01°18' E 104°01'0 0.0
2016-Feb-12 02:03N 01°18' E 104°01'0 0.0
2016-Feb-12 01:33N 01°18' E 104°01'0 0.0
2016-Feb-11 23:33N 01°18' E 104°01'0 0.0
2016-Feb-11 22:21N 01°18' E 104°01'2 2.8
2016-Feb-11 21:33N 01°16' E 103°59'  
2016-Feb-02 16:33N 38°57' E 117°54'6 5.7
2016-Feb-02 15:32N 38°58' E 117°47'0 0.0
2016-Feb-02 14:14N 38°58' E 117°47'0 0.0
2016-Feb-02 13:32N 38°58' E 117°47'0 0.0
2016-Feb-02 12:32N 38°58' E 117°47'  
Track history (hours):
 
Tides and Currents Weather Stations Pressure Air Temp Water Temp Dewpoint Dewpoint Depression Visibility Wind Speed Wind Dir Waves Ship Positions

Seahope II

Last reported at 2016-Feb-12 12:19 UTC. Time now 2016-Feb-12 18:17 UTC.
Position N 01°13' E 103°54'.

Length 190 m; draft 9.6 m.

Type: Cargo ship. MMSI: 248185000.

Date/timePositionNaut miles runAvg speedWind from/ knotsBaromVisibWave heightAir tempDewpointWater temp
2016-Feb-12 12:19N 01°13' E 103°54'7 8.7
2016-Feb-12 11:31N 01°16' E 103°60'2 1.3
2016-Feb-12 10:09N 01°18' E 104°01'0 0.1
2016-Feb-12 09:21N 01°18' E 104°01'0 0.1
2016-Feb-12 07:33N 01°18' E 104°01'0 0.1
2016-Feb-12 06:18N 01°18' E 104°01'0 0.0
2016-Feb-12 05:33N 01°18' E 104°01'0 0.0
2016-Feb-12 02:03N 01°18' E 104°01'0 0.0
2016-Feb-12 01:33N 01°18' E 104°01'0 0.0
2016-Feb-11 23:33N 01°18' E 104°01'0 0.0
2016-Feb-11 22:21N 01°18' E 104°01'2 2.8
2016-Feb-11 21:33N 01°16' E 103°59'  
2016-Feb-02 16:33N 38°57' E 117°54'6 5.7
2016-Feb-02 15:32N 38°58' E 117°47'0 0.0
2016-Feb-02 14:14N 38°58' E 117°47'0 0.0
2016-Feb-02 13:32N 38°58' E 117°47'0 0.0
2016-Feb-02 12:32N 38°58' E 117°47'  

Dump ship's entire track history